createdAt,value
2022-11-15T00:00:44.681Z,93.60
2022-11-15T00:01:44.726Z,93.50
2022-11-15T00:02:44.700Z,93.60
2022-11-15T00:03:44.685Z,92.99
2022-11-15T00:04:44.642Z,92.78
2022-11-15T00:05:44.643Z,93.70
2022-11-15T00:06:44.723Z,93.70
2022-11-15T00:07:56.698Z,93.54
2022-11-15T00:08:46.767Z,93.60
2022-11-15T00:09:46.191Z,93.40
2022-11-15T00:10:44.620Z,93.44
2022-11-15T00:11:44.599Z,93.50
2022-11-15T00:12:44.627Z,93.44
2022-11-15T00:13:44.630Z,93.40
2022-11-15T00:14:44.712Z,93.65
2022-11-15T00:15:44.621Z,93.50
2022-11-15T00:16:44.636Z,93.33
2022-11-15T00:17:44.563Z,93.85
2022-11-15T00:18:50.252Z,94.15
2022-11-15T00:19:46.579Z,94.15
2022-11-15T00:20:44.565Z,94.46
2022-11-15T00:21:44.549Z,94.87
2022-11-15T00:22:44.549Z,94.51
2022-11-15T00:23:44.558Z,95.12
2022-11-15T00:24:44.545Z,94.30
2022-11-15T00:25:44.542Z,94.40
2022-11-15T00:26:44.558Z,94.71
2022-11-15T00:27:44.508Z,94.81
2022-11-15T00:28:44.517Z,95.12
2022-11-15T00:29:44.542Z,95.38
2022-11-15T00:30:44.616Z,94.92
2022-11-15T00:31:44.478Z,94.92
2022-11-15T00:32:44.505Z,95.32
2022-11-15T00:33:44.529Z,95.32
2022-11-15T00:34:44.502Z,95.32
2022-11-15T00:35:44.476Z,95.02
2022-11-15T00:36:44.449Z,95.22
2022-11-15T00:37:44.460Z,95.32
2022-11-15T00:38:44.499Z,94.92
2022-11-15T00:39:44.472Z,95.53
2022-11-15T00:40:44.456Z,95.02
2022-11-15T00:41:45.434Z,95.02
2022-11-15T00:42:44.435Z,94.71
2022-11-15T00:43:45.122Z,94.60
2022-11-15T00:44:44.441Z,94.55
2022-11-15T00:45:44.425Z,95.12
2022-11-15T00:46:44.419Z,94.71
2022-11-15T00:47:44.392Z,95.26
2022-11-15T00:48:44.406Z,95.17
2022-11-15T00:49:44.427Z,95.78
2022-11-15T00:50:44.400Z,96.39
2022-11-15T00:51:44.384Z,95.67
2022-11-15T00:52:44.393Z,95.37
2022-11-15T00:53:44.384Z,95.10
2022-11-15T00:54:44.394Z,96.03
2022-11-15T00:55:44.362Z,96.74
2022-11-15T00:56:44.330Z,96.48
2022-11-15T00:57:44.376Z,96.69
2022-11-15T00:58:44.324Z,97.09
2022-11-15T00:59:44.376Z,97.09
2022-11-15T01:00:44.401Z,97.09
2022-11-15T01:01:44.304Z,97.04
2022-11-15T01:02:44.345Z,96.89
2022-11-15T01:03:44.293Z,97.24
2022-11-15T01:04:47.596Z,97.96
2022-11-15T01:05:44.333Z,97.34
2022-11-15T01:06:44.396Z,96.94
2022-11-15T01:07:44.403Z,96.78
2022-11-15T01:08:44.289Z,97.19
2022-11-15T01:09:44.260Z,96.82
2022-11-15T01:10:44.308Z,96.78
2022-11-15T01:11:44.274Z,96.31
2022-11-15T01:12:44.260Z,96.72
2022-11-15T01:13:44.249Z,96.92
2022-11-15T01:14:45.332Z,97.33
2022-11-15T01:15:44.377Z,97.33
2022-11-15T01:16:44.222Z,97.13
2022-11-15T01:17:44.250Z,97.74
2022-11-15T01:18:44.254Z,97.64
2022-11-15T01:19:44.202Z,97.13
2022-11-15T01:20:44.241Z,97.17
2022-11-15T01:21:44.262Z,97.07
2022-11-15T01:22:44.213Z,96.87
2022-11-15T01:23:44.197Z,97.17
2022-11-15T01:24:44.214Z,96.97
2022-11-15T01:25:44.156Z,96.77
2022-11-15T01:26:44.198Z,97.22
2022-11-15T01:27:44.220Z,97.32
2022-11-15T01:28:44.184Z,97.12
2022-11-15T01:29:44.146Z,96.60
2022-11-15T01:30:44.139Z,96.70
2022-11-15T01:31:44.166Z,96.19
2022-11-15T01:32:44.170Z,96.95
2022-11-15T01:33:44.122Z,96.85
2022-11-15T01:34:44.130Z,97.37
2022-11-15T01:35:44.175Z,97.12
2022-11-15T01:36:44.118Z,97.06
2022-11-15T01:37:44.557Z,96.95
2022-11-15T01:38:44.121Z,97.67
2022-11-15T01:39:44.123Z,98.19
2022-11-15T01:40:44.089Z,98.80
2022-11-15T01:41:44.090Z,98.70
2022-11-15T01:42:44.062Z,97.62
2022-11-15T01:43:44.174Z,97.92
2022-11-15T01:44:44.073Z,97.41
2022-11-15T01:45:44.115Z,98.13
2022-11-15T01:46:44.043Z,97.10
2022-11-15T01:47:44.022Z,97.62
2022-11-15T01:48:44.103Z,96.69
2022-11-15T01:49:44.042Z,98.03
2022-11-15T01:50:44.034Z,97.97
2022-11-15T01:51:44.023Z,98.07
2022-11-15T01:52:44.031Z,97.25
2022-11-15T01:53:44.006Z,97.36
2022-11-15T01:54:44.129Z,98.28
2022-11-15T01:55:43.986Z,99.00
2022-11-15T01:56:44.018Z,99.10
2022-11-15T01:57:44.019Z,97.19
2022-11-15T01:58:44.015Z,97.40
2022-11-15T01:59:44.057Z,98.02
2022-11-15T02:00:44.013Z,98.74
2022-11-15T02:01:43.933Z,98.63
2022-11-15T02:02:44.954Z,98.02
2022-11-15T02:03:43.950Z,97.24
2022-11-15T02:04:43.977Z,99.19
2022-11-15T02:05:43.968Z,99.40
2022-11-15T02:06:43.915Z,98.88
2022-11-15T02:07:43.916Z,98.99
2022-11-15T02:08:43.923Z,98.58
2022-11-15T02:09:43.919Z,98.99
2022-11-15T02:10:43.917Z,98.72
2022-11-15T02:11:43.893Z,98.83
2022-11-15T02:12:43.908Z,98.32
2022-11-15T02:13:43.878Z,99.24
2022-11-15T02:14:43.859Z,98.72
2022-11-15T02:15:43.876Z,99.09
2022-11-15T02:16:43.887Z,99.60
2022-11-15T02:17:43.860Z,99.34
2022-11-15T02:18:43.970Z,97.86
2022-11-15T02:19:43.835Z,97.90
2022-11-15T02:20:43.853Z,98.93
2022-11-15T02:21:43.874Z,98.72
2022-11-15T02:22:43.829Z,98.27
2022-11-15T02:23:43.804Z,98.21
2022-11-15T02:24:43.803Z,98.11
2022-11-15T02:25:43.817Z,98.11
2022-11-15T02:26:43.829Z,98.32
2022-11-15T02:27:43.815Z,98.83
2022-11-15T02:28:43.772Z,98.58
2022-11-15T02:29:43.772Z,98.32
2022-11-15T02:30:43.792Z,98.27
2022-11-15T02:31:43.787Z,98.72
2022-11-15T02:32:43.871Z,98.72
2022-11-15T02:33:43.733Z,98.83
2022-11-15T02:34:44.734Z,99.04
2022-11-15T02:35:43.730Z,99.44
2022-11-15T02:36:43.752Z,99.60
2022-11-15T02:37:43.723Z,99.40
2022-11-15T02:38:43.854Z,99.51
2022-11-15T02:39:43.713Z,99.51
2022-11-15T02:40:43.704Z,98.88
2022-11-15T02:41:43.690Z,98.99
2022-11-15T02:42:43.684Z,98.99
2022-11-15T02:43:43.735Z,98.88
2022-11-15T02:44:43.713Z,99.55
2022-11-15T02:45:43.698Z,99.65
2022-11-15T02:46:43.687Z,99.60
2022-11-15T02:47:43.668Z,99.91
2022-11-15T02:48:43.667Z,99.40
2022-11-15T02:49:43.660Z,99.60
2022-11-15T02:50:43.663Z,99.19
2022-11-15T02:51:43.637Z,99.71
2022-11-15T02:52:43.649Z,99.86
2022-11-15T02:53:43.638Z,99.99
2022-11-15T02:54:43.678Z,99.99
2022-11-15T02:55:43.615Z,99.44
2022-11-15T02:56:43.614Z,99.96
2022-11-15T02:57:43.585Z,99.96
2022-11-15T02:58:43.602Z,99.99
2022-11-15T02:59:43.580Z,99.65
2022-11-15T03:00:43.717Z,99.99
2022-11-15T03:01:43.594Z,99.99
2022-11-15T03:02:43.574Z,99.99
2022-11-15T03:03:43.576Z,99.96
2022-11-15T03:04:43.585Z,99.99
2022-11-15T03:05:43.572Z,99.86
2022-11-15T03:06:43.561Z,99.99
2022-11-15T03:07:43.514Z,99.99
2022-11-15T03:08:43.516Z,99.99
2022-11-15T03:09:43.551Z,99.99
2022-11-15T03:10:43.547Z,99.99
2022-11-15T03:11:43.507Z,99.76
2022-11-15T03:12:43.506Z,99.81
2022-11-15T03:13:43.498Z,99.34
2022-11-15T03:14:43.505Z,99.04
2022-11-15T03:15:43.458Z,98.93
2022-11-15T03:16:43.613Z,99.39
2022-11-15T03:17:43.450Z,99.65
2022-11-15T03:18:43.491Z,99.76
2022-11-15T03:19:43.454Z,99.96
2022-11-15T03:20:43.463Z,99.86
2022-11-15T03:21:43.464Z,99.70
2022-11-15T03:22:43.470Z,99.70
2022-11-15T03:23:43.467Z,99.99
2022-11-15T03:24:43.406Z,99.99
2022-11-15T03:25:43.398Z,99.99
2022-11-15T03:26:43.390Z,99.99
2022-11-15T03:27:43.416Z,99.99
2022-11-15T03:28:43.392Z,99.99
2022-11-15T03:29:43.395Z,99.99
2022-11-15T03:30:43.385Z,99.99
2022-11-15T03:31:48.597Z,99.99
2022-11-15T03:32:44.392Z,99.80
2022-11-15T03:33:43.356Z,99.99
2022-11-15T03:34:43.351Z,99.99
2022-11-15T03:35:43.334Z,99.60
2022-11-15T03:36:43.334Z,99.60
2022-11-15T03:37:43.335Z,99.99
2022-11-15T03:38:43.519Z,99.99
2022-11-15T03:39:43.335Z,99.99
2022-11-15T03:40:43.309Z,99.99
2022-11-15T03:41:43.299Z,99.99
2022-11-15T03:42:43.314Z,99.99
2022-11-15T03:43:43.403Z,99.99
2022-11-15T03:44:43.300Z,99.99
2022-11-15T03:45:43.290Z,99.90
2022-11-15T03:46:43.268Z,99.99
2022-11-15T03:47:43.278Z,99.99
2022-11-15T03:48:43.279Z,99.99
2022-11-15T03:49:43.261Z,99.99
2022-11-15T03:50:43.244Z,99.99
2022-11-15T03:51:43.230Z,99.99
2022-11-15T03:52:43.222Z,99.99
2022-11-15T03:53:43.252Z,99.99
2022-11-15T03:54:43.247Z,99.99
2022-11-15T03:55:43.232Z,99.54
2022-11-15T03:56:43.226Z,99.99
2022-11-15T03:57:43.198Z,99.99
2022-11-15T03:58:43.192Z,99.85
2022-11-15T03:59:43.190Z,99.74
2022-11-15T04:00:43.316Z,99.99
2022-11-15T04:01:43.236Z,99.64
2022-11-15T04:02:43.148Z,99.69
2022-11-15T04:03:43.162Z,99.43
2022-11-15T04:04:43.176Z,99.69
2022-11-15T04:05:43.276Z,99.17
2022-11-15T04:06:43.145Z,99.07
2022-11-15T04:07:43.162Z,99.99
2022-11-15T04:08:43.999Z,99.69
2022-11-15T04:09:43.155Z,99.99
2022-11-15T04:10:43.134Z,99.99
2022-11-15T04:11:43.380Z,99.99
2022-11-15T04:12:43.093Z,99.99
2022-11-15T04:13:43.078Z,99.99
2022-11-15T04:14:43.077Z,99.99
2022-11-15T04:15:43.084Z,99.99
2022-11-15T04:16:44.197Z,99.99
2022-11-15T04:17:44.081Z,99.99
2022-11-15T04:18:43.065Z,99.99
2022-11-15T04:19:43.051Z,99.99
2022-11-15T04:20:43.047Z,99.99
2022-11-15T04:21:43.015Z,99.90
2022-11-15T04:22:43.151Z,99.99
2022-11-15T04:23:43.021Z,99.54
2022-11-15T04:24:43.017Z,99.17
2022-11-15T04:25:43.033Z,99.27
2022-11-15T04:26:42.994Z,98.86
2022-11-15T04:27:43.004Z,98.86
2022-11-15T04:28:42.997Z,99.22
2022-11-15T04:29:42.988Z,99.22
2022-11-15T04:30:43.006Z,99.43
2022-11-15T04:31:43.002Z,99.63
2022-11-15T04:32:42.969Z,99.32
2022-11-15T04:33:43.095Z,99.52
2022-11-15T04:34:42.993Z,99.73
2022-11-15T04:35:42.941Z,99.63
2022-11-15T04:36:42.973Z,99.73
2022-11-15T04:37:48.959Z,99.73
2022-11-15T04:38:45.051Z,99.32
2022-11-15T04:39:42.916Z,99.06
2022-11-15T04:40:42.968Z,99.26
2022-11-15T04:41:42.919Z,98.91
2022-11-15T04:42:43.058Z,99.11
2022-11-15T04:43:42.903Z,99.57
2022-11-15T04:44:42.985Z,99.99
2022-11-15T04:45:42.877Z,99.78
2022-11-15T04:46:42.867Z,99.26
2022-11-15T04:47:42.891Z,99.57
2022-11-15T04:48:42.868Z,98.85
2022-11-15T04:49:42.996Z,99.37
2022-11-15T04:50:42.870Z,98.65
2022-11-15T04:51:42.813Z,99.37
2022-11-15T04:52:42.839Z,99.37
2022-11-15T04:53:42.819Z,99.57
2022-11-15T04:54:42.827Z,99.00
2022-11-15T04:55:42.848Z,98.49
2022-11-15T04:56:42.847Z,99.31
2022-11-15T04:57:42.807Z,99.31
2022-11-15T04:58:42.817Z,99.41
2022-11-15T04:59:42.781Z,99.31
2022-11-15T05:00:42.864Z,99.72
2022-11-15T05:01:45.140Z,99.41
2022-11-15T05:02:43.776Z,99.66
2022-11-15T05:03:42.751Z,99.56
2022-11-15T05:04:42.758Z,99.21
2022-11-15T05:05:42.742Z,99.56
2022-11-15T05:06:42.776Z,99.99
2022-11-15T05:07:42.787Z,99.25
2022-11-15T05:08:42.719Z,99.93
2022-11-15T05:09:42.737Z,99.35
2022-11-15T05:10:42.698Z,99.25
2022-11-15T05:11:42.752Z,99.87
2022-11-15T05:12:42.688Z,99.99
2022-11-15T05:13:42.715Z,99.82
2022-11-15T05:14:42.684Z,99.99
2022-11-15T05:15:42.663Z,99.99
2022-11-15T05:16:42.669Z,99.99
2022-11-15T05:17:42.746Z,99.99
2022-11-15T05:18:42.667Z,99.99
2022-11-15T05:19:42.677Z,99.99
2022-11-15T05:20:42.629Z,99.99
2022-11-15T05:21:42.643Z,99.99
2022-11-15T05:22:42.847Z,99.99
2022-11-15T05:23:42.635Z,99.99
2022-11-15T05:24:42.612Z,99.99
2022-11-15T05:25:42.627Z,99.99
2022-11-15T05:26:42.588Z,99.99
2022-11-15T05:27:42.601Z,99.99
2022-11-15T05:28:42.623Z,99.99
2022-11-15T05:29:42.567Z,99.99
2022-11-15T05:30:42.563Z,99.99
2022-11-15T05:31:42.554Z,99.99
2022-11-15T05:32:42.584Z,99.99
2022-11-15T05:33:42.631Z,99.99
2022-11-15T05:34:42.551Z,99.99
2022-11-15T05:35:42.543Z,99.99
2022-11-15T05:36:42.550Z,99.99
2022-11-15T05:37:42.565Z,99.99
2022-11-15T05:38:42.534Z,99.99
2022-11-15T05:39:42.724Z,99.99
2022-11-15T05:40:42.525Z,99.99
2022-11-15T05:41:42.502Z,99.99
2022-11-15T05:42:42.495Z,99.99
2022-11-15T05:43:42.479Z,99.99
2022-11-15T05:44:42.602Z,99.99
2022-11-15T05:45:42.479Z,99.99
2022-11-15T05:46:42.496Z,99.99
2022-11-15T05:47:42.478Z,99.99
2022-11-15T05:48:42.477Z,99.99
2022-11-15T05:49:42.441Z,99.99
2022-11-15T05:50:42.569Z,99.99
2022-11-15T05:51:42.442Z,99.99
2022-11-15T05:52:42.440Z,99.99
2022-11-15T05:53:42.433Z,99.99
2022-11-15T05:54:42.402Z,99.99
2022-11-15T05:55:42.451Z,99.99
2022-11-15T05:56:42.409Z,99.99
2022-11-15T05:57:42.399Z,99.99
2022-11-15T05:58:42.427Z,99.99
2022-11-15T05:59:42.412Z,99.99
2022-11-15T06:00:42.367Z,99.99
2022-11-15T06:01:42.448Z,99.99
2022-11-15T06:02:42.370Z,99.99
2022-11-15T06:03:42.359Z,99.99
2022-11-15T06:04:42.365Z,99.99
2022-11-15T06:05:42.375Z,99.99
2022-11-15T06:06:42.454Z,99.99
2022-11-15T06:07:42.318Z,99.99
2022-11-15T06:08:42.372Z,99.99
2022-11-15T06:09:42.311Z,99.99
2022-11-15T06:10:42.328Z,99.99
2022-11-15T06:11:42.329Z,99.99
2022-11-15T06:12:42.336Z,99.99
2022-11-15T06:13:42.285Z,99.92
2022-11-15T06:14:42.292Z,99.92
2022-11-15T06:15:42.277Z,99.76
2022-11-15T06:16:42.272Z,99.86
2022-11-15T06:17:42.507Z,99.99
2022-11-15T06:18:42.267Z,99.65
2022-11-15T06:19:42.244Z,99.99
2022-11-15T06:20:42.236Z,99.99
2022-11-15T06:21:42.258Z,99.99
2022-11-15T06:22:42.263Z,99.99
2022-11-15T06:23:42.301Z,99.86
2022-11-15T06:24:42.243Z,99.99
2022-11-15T06:25:42.235Z,99.99
2022-11-15T06:26:42.194Z,99.99
2022-11-15T06:27:42.183Z,99.99
2022-11-15T06:28:42.640Z,99.99
2022-11-15T06:29:42.190Z,99.99
2022-11-15T06:30:42.199Z,99.99
2022-11-15T06:31:42.197Z,99.99
2022-11-15T06:32:42.183Z,99.99
2022-11-15T06:33:42.152Z,99.99
2022-11-15T06:34:42.195Z,99.99
2022-11-15T06:35:42.142Z,99.99
2022-11-15T06:36:42.137Z,99.99
2022-11-15T06:37:42.142Z,99.99
2022-11-15T06:39:10.600Z,99.99
2022-11-15T06:40:10.657Z,99.99
2022-11-15T06:41:11.707Z,99.99
2022-11-15T06:42:11.716Z,99.99
2022-11-15T06:43:11.720Z,99.99
2022-11-15T06:44:11.714Z,99.99
2022-11-15T06:45:11.838Z,99.99
2022-11-15T06:46:11.683Z,99.99
2022-11-15T06:47:11.673Z,99.99
2022-11-15T06:48:11.691Z,99.99
2022-11-15T06:49:11.667Z,99.99
2022-11-15T06:50:11.691Z,99.99
2022-11-15T06:51:11.705Z,99.99
2022-11-15T06:52:11.714Z,99.99
2022-11-15T06:53:11.658Z,99.99
2022-11-15T06:54:11.644Z,99.99
2022-11-15T06:55:11.637Z,99.99
2022-11-15T06:56:11.773Z,99.63
2022-11-15T06:57:11.617Z,99.99
2022-11-15T06:58:11.618Z,99.94
2022-11-15T06:59:11.627Z,99.99
2022-11-15T07:00:11.625Z,99.32
2022-11-15T07:01:11.678Z,99.22
2022-11-15T07:02:11.632Z,99.32
2022-11-15T07:03:11.573Z,97.56
2022-11-15T07:04:11.561Z,97.77
2022-11-15T07:05:11.556Z,97.47
2022-11-15T07:06:11.549Z,97.36
2022-11-15T07:07:11.752Z,97.67
2022-11-15T07:08:11.598Z,97.88
2022-11-15T07:09:11.569Z,98.02
2022-11-15T07:10:11.548Z,98.08
2022-11-15T07:11:11.533Z,97.51
2022-11-15T07:12:11.519Z,97.72
2022-11-15T07:13:11.530Z,97.77
2022-11-15T07:14:11.552Z,98.70
2022-11-15T07:15:11.524Z,98.33
2022-11-15T07:16:11.499Z,98.29
2022-11-15T07:17:11.503Z,97.77
2022-11-15T07:18:11.585Z,97.67
2022-11-15T07:19:11.472Z,97.36
2022-11-15T07:20:11.447Z,96.84
2022-11-15T07:21:11.483Z,97.67
2022-11-15T07:22:11.452Z,97.36
2022-11-15T07:23:11.506Z,96.91
2022-11-15T07:24:11.454Z,96.12
2022-11-15T07:25:11.440Z,97.16
2022-11-15T07:26:11.416Z,97.16
2022-11-15T07:27:11.442Z,97.21
2022-11-15T07:28:11.415Z,97.21
2022-11-15T07:29:11.449Z,96.55
2022-11-15T07:30:11.427Z,96.96
2022-11-15T07:31:11.401Z,96.91
2022-11-15T07:32:11.395Z,96.59
2022-11-15T07:33:11.387Z,96.96
2022-11-15T07:34:11.356Z,97.17
2022-11-15T07:35:11.405Z,96.55
2022-11-15T07:36:11.378Z,97.83
2022-11-15T07:37:11.377Z,97.73
2022-11-15T07:38:11.385Z,97.27
2022-11-15T07:39:11.377Z,97.42
2022-11-15T07:40:11.456Z,97.73
2022-11-15T07:41:11.328Z,97.83
2022-11-15T07:42:11.319Z,97.94
2022-11-15T07:43:11.328Z,97.89
2022-11-15T07:44:11.307Z,97.38
2022-11-15T07:45:11.335Z,97.13
2022-11-15T07:46:11.323Z,96.09
2022-11-15T07:47:11.277Z,95.43
2022-11-15T07:48:11.275Z,95.28
2022-11-15T07:49:11.258Z,94.01
2022-11-15T07:50:11.278Z,93.04
2022-11-15T07:51:14.024Z,92.23
2022-11-15T07:52:11.300Z,90.55
2022-11-15T07:53:11.263Z,89.48
2022-11-15T07:54:11.261Z,88.72
2022-11-15T07:55:11.256Z,88.72
2022-11-15T07:56:11.232Z,89.37
2022-11-15T07:57:11.364Z,89.89
2022-11-15T07:58:11.234Z,88.70
2022-11-15T07:59:11.286Z,89.72
2022-11-15T08:00:11.205Z,89.42
2022-11-15T08:01:11.378Z,88.86
2022-11-15T08:02:11.369Z,89.42
2022-11-15T08:03:11.203Z,89.31
2022-11-15T08:04:11.247Z,90.03
2022-11-15T08:05:11.183Z,90.03
2022-11-15T08:06:11.174Z,90.34
2022-11-15T08:07:11.235Z,90.48
2022-11-15T08:08:11.287Z,89.45
2022-11-15T08:09:11.145Z,84.71
2022-11-15T08:10:11.153Z,81.60
2022-11-15T08:11:11.125Z,80.28
2022-11-15T08:12:12.115Z,79.93
2022-11-15T08:13:11.182Z,80.48
2022-11-15T08:14:11.110Z,78.97
2022-11-15T08:15:11.098Z,76.62
2022-11-15T08:16:11.126Z,78.57
2022-11-15T08:17:11.121Z,80.42
2022-11-15T08:18:11.100Z,81.57
2022-11-15T08:19:11.163Z,77.51
2022-11-15T08:20:11.113Z,76.01
2022-11-15T08:21:14.220Z,71.06
2022-11-15T08:22:12.062Z,68.43
2022-11-15T08:23:11.082Z,66.52
2022-11-15T08:24:11.104Z,64.97
2022-11-15T08:25:11.090Z,64.40
2022-11-15T08:26:11.103Z,62.29
2022-11-15T08:27:11.064Z,60.32
2022-11-15T08:28:11.142Z,58.45
2022-11-15T08:29:11.063Z,57.39
2022-11-15T08:30:11.836Z,57.17
2022-11-15T08:31:11.034Z,57.06
2022-11-15T08:32:11.007Z,56.96
2022-11-15T08:33:10.992Z,56.54
2022-11-15T08:34:11.019Z,56.71
2022-11-15T08:35:11.008Z,55.47
2022-11-15T08:36:11.005Z,55.95
2022-11-15T08:37:10.978Z,54.75
2022-11-15T08:38:11.034Z,55.28
2022-11-15T08:39:10.969Z,54.70
2022-11-15T08:40:10.961Z,55.30
2022-11-15T08:41:11.099Z,55.33
2022-11-15T08:42:13.540Z,57.17
2022-11-15T08:43:11.926Z,56.89
2022-11-15T08:44:10.952Z,57.92
2022-11-15T08:45:10.940Z,58.17
2022-11-15T08:46:10.949Z,56.91
2022-11-15T08:47:10.922Z,54.45
2022-11-15T08:48:10.918Z,52.92
2022-11-15T08:49:10.889Z,54.27
2022-11-15T08:50:10.928Z,54.62
2022-11-15T08:51:11.884Z,53.30
2022-11-15T08:52:10.923Z,53.07
2022-11-15T08:53:10.876Z,52.80
2022-11-15T08:54:10.902Z,52.89
2022-11-15T08:55:10.893Z,52.04
2022-11-15T08:56:10.873Z,50.07
2022-11-15T08:57:10.891Z,48.25
2022-11-15T08:58:10.911Z,49.65
2022-11-15T08:59:10.857Z,49.53
2022-11-15T09:00:10.844Z,48.71
2022-11-15T09:01:12.871Z,48.80
2022-11-15T09:02:11.906Z,47.69
2022-11-15T09:03:10.865Z,47.49
2022-11-15T09:04:10.848Z,48.19
2022-11-15T09:05:10.803Z,49.40
2022-11-15T09:06:11.882Z,49.18
2022-11-15T09:07:10.838Z,47.54
2022-11-15T09:08:32.797Z,45.90
2022-11-15T09:09:11.772Z,45.93
2022-11-15T09:10:10.797Z,46.01
2022-11-15T09:11:10.757Z,46.33
2022-11-15T09:12:10.777Z,46.60
2022-11-15T09:13:10.889Z,46.08
2022-11-15T09:14:10.896Z,46.28
2022-11-15T09:15:10.779Z,46.41
2022-11-15T09:16:10.794Z,45.83
2022-11-15T09:17:10.733Z,47.00
2022-11-15T09:18:10.706Z,45.59
2022-11-15T09:19:12.081Z,45.03
2022-11-15T09:20:10.773Z,42.43
2022-11-15T09:21:10.749Z,42.72
2022-11-15T09:22:10.756Z,42.41
2022-11-15T09:23:10.724Z,42.41
2022-11-15T09:24:10.808Z,41.30
2022-11-15T09:25:11.340Z,41.77
2022-11-15T09:26:11.690Z,41.53
2022-11-15T09:27:10.664Z,41.65
2022-11-15T09:28:10.659Z,41.77
2022-11-15T09:29:10.671Z,42.71
2022-11-15T09:30:10.779Z,43.46
2022-11-15T09:31:10.640Z,44.14
2022-11-15T09:32:10.688Z,46.92
2022-11-15T09:33:10.637Z,46.23
2022-11-15T09:34:10.629Z,46.30
2022-11-15T09:35:10.639Z,47.83
2022-11-15T09:36:10.658Z,50.09
2022-11-15T09:37:10.631Z,50.72
2022-11-15T09:38:10.636Z,51.50
2022-11-15T09:39:10.608Z,50.74
2022-11-15T09:40:10.589Z,49.95
2022-11-15T09:41:11.649Z,50.79
2022-11-15T09:42:10.590Z,48.38
2022-11-15T09:43:10.594Z,48.55
2022-11-15T09:44:10.605Z,48.61
2022-11-15T09:45:10.605Z,47.94
2022-11-15T09:46:10.573Z,45.81
2022-11-15T09:47:10.577Z,43.88
2022-11-15T09:48:10.561Z,43.36
2022-11-15T09:49:10.563Z,46.13
2022-11-15T09:50:10.560Z,47.11
2022-11-15T09:51:10.575Z,47.75
2022-11-15T09:52:10.548Z,47.98
2022-11-15T09:53:10.547Z,48.08
2022-11-15T09:55:12.525Z,50.57
2022-11-15T09:56:10.554Z,50.27
2022-11-15T09:57:15.736Z,48.05
2022-11-15T09:58:12.490Z,47.69
2022-11-15T09:59:10.526Z,45.63
2022-11-15T10:01:12.548Z,46.11
2022-11-15T10:02:10.504Z,45.30
2022-11-15T10:03:10.486Z,47.75
2022-11-15T10:04:11.984Z,49.13
2022-11-15T10:05:11.479Z,46.75
2022-11-15T10:06:10.511Z,45.67
2022-11-15T10:07:10.597Z,47.14
2022-11-15T10:08:10.455Z,47.80
2022-11-15T10:09:10.453Z,48.10
2022-11-15T10:10:10.443Z,50.07
2022-11-15T10:11:36.172Z,49.21
2022-11-15T10:12:11.442Z,46.70
2022-11-15T10:13:10.466Z,45.86
2022-11-15T10:14:10.413Z,44.41
2022-11-15T10:15:10.414Z,42.38
2022-11-15T10:16:10.420Z,43.79
2022-11-15T10:17:10.418Z,44.13
2022-11-15T10:18:10.416Z,44.11
2022-11-15T10:19:10.388Z,43.62
2022-11-15T10:20:10.372Z,45.70
2022-11-15T10:21:10.389Z,44.46
2022-11-15T10:22:10.824Z,42.78
2022-11-15T10:23:10.379Z,43.13
2022-11-15T10:24:10.367Z,41.65
2022-11-15T10:25:10.363Z,39.91
2022-11-15T10:26:10.362Z,41.10
2022-11-15T10:27:10.376Z,40.29
2022-11-15T10:28:10.342Z,39.32
2022-11-15T10:29:10.332Z,40.21
2022-11-15T10:30:10.351Z,40.25
2022-11-15T10:31:14.302Z,40.48
2022-11-15T10:32:11.223Z,40.68
2022-11-15T10:33:10.358Z,41.69
2022-11-15T10:34:10.309Z,42.19
2022-11-15T10:35:10.321Z,42.33
2022-11-15T10:36:10.360Z,44.00
2022-11-15T10:37:10.315Z,47.03
2022-11-15T10:38:10.292Z,50.15
2022-11-15T10:39:10.290Z,50.35
2022-11-15T10:40:10.257Z,50.72
2022-11-15T10:41:10.253Z,50.95
2022-11-15T10:42:13.991Z,48.33
2022-11-15T10:43:11.261Z,47.47
2022-11-15T10:44:10.280Z,46.80
2022-11-15T10:45:10.264Z,45.52
2022-11-15T10:46:39.349Z,43.76
2022-11-15T10:47:11.272Z,44.04
2022-11-15T10:48:10.208Z,43.77
2022-11-15T10:49:10.221Z,40.66
2022-11-15T10:50:10.214Z,41.79
2022-11-15T10:51:10.231Z,45.54
2022-11-15T10:52:10.186Z,45.59
2022-11-15T10:53:10.327Z,44.07
2022-11-15T10:54:13.023Z,45.89
2022-11-15T10:55:11.202Z,46.04
2022-11-15T10:56:10.202Z,50.20
2022-11-15T10:57:10.195Z,48.65
2022-11-15T10:58:10.195Z,47.03
2022-11-15T10:59:10.209Z,49.74
2022-11-15T11:00:10.164Z,50.74
2022-11-15T11:01:10.218Z,50.27
2022-11-15T11:02:10.176Z,49.57
2022-11-15T11:03:10.155Z,48.50
2022-11-15T11:04:10.182Z,50.04
2022-11-15T11:05:10.168Z,52.27
2022-11-15T11:06:10.122Z,52.84
2022-11-15T11:07:10.146Z,52.04
2022-11-15T11:08:10.096Z,53.17
2022-11-15T11:09:10.246Z,53.89
2022-11-15T11:10:36.301Z,54.12
2022-11-15T11:11:11.124Z,54.47
2022-11-15T11:12:10.106Z,57.17
2022-11-15T11:13:10.141Z,58.22
2022-11-15T11:14:10.068Z,59.63
2022-11-15T11:15:10.111Z,59.13
2022-11-15T11:16:10.080Z,58.27
2022-11-15T11:17:10.068Z,58.18
2022-11-15T11:18:10.086Z,60.55
2022-11-15T11:19:10.051Z,60.96
2022-11-15T11:20:10.061Z,61.46
2022-11-15T11:21:10.080Z,61.39
2022-11-15T11:22:10.069Z,61.79
2022-11-15T11:23:10.020Z,63.90
2022-11-15T11:24:10.038Z,63.00
2022-11-15T11:25:10.010Z,64.28
2022-11-15T11:26:10.067Z,64.98
2022-11-15T11:27:09.997Z,63.85
2022-11-15T11:28:10.022Z,64.55
2022-11-15T11:29:09.970Z,63.85
2022-11-15T11:30:10.006Z,64.65
2022-11-15T11:31:09.991Z,65.09
2022-11-15T11:32:09.949Z,65.26
2022-11-15T11:33:09.961Z,64.82
2022-11-15T11:34:09.965Z,64.62
2022-11-15T11:35:09.968Z,64.52
2022-11-15T11:36:09.921Z,65.16
2022-11-15T11:37:10.057Z,62.87
2022-11-15T11:38:09.930Z,63.00
2022-11-15T11:39:09.935Z,62.32
2022-11-15T11:40:11.018Z,63.43
2022-11-15T11:41:10.912Z,64.04
2022-11-15T11:42:10.461Z,62.46
2022-11-15T11:43:09.940Z,61.87
2022-11-15T11:44:09.883Z,60.41
2022-11-15T11:45:09.898Z,58.77
2022-11-15T11:46:09.873Z,60.21
2022-11-15T11:47:09.915Z,59.23
2022-11-15T11:48:09.907Z,59.33
2022-11-15T11:49:10.875Z,60.53
2022-11-15T11:50:09.843Z,61.60
2022-11-15T11:51:09.853Z,61.40
2022-11-15T11:52:09.852Z,61.89
2022-11-15T11:53:09.957Z,62.19
2022-11-15T11:54:09.865Z,63.70
2022-11-15T11:55:09.830Z,64.61
2022-11-15T11:56:09.824Z,64.11
2022-11-15T11:57:10.840Z,64.64
2022-11-15T11:58:09.818Z,64.92
2022-11-15T11:59:09.875Z,64.72
2022-11-15T12:00:09.809Z,62.93
2022-11-15T12:01:12.688Z,63.73
2022-11-15T12:02:10.927Z,62.70
2022-11-15T12:03:09.914Z,62.93
2022-11-15T12:04:09.808Z,63.53
2022-11-15T12:05:09.818Z,62.83
2022-11-15T12:06:10.352Z,62.80
2022-11-15T12:07:09.826Z,63.20
2022-11-15T12:08:09.758Z,63.27
2022-11-15T12:09:09.747Z,62.06
2022-11-15T12:10:10.036Z,62.26
2022-11-15T12:11:09.716Z,62.83
2022-11-15T12:12:09.744Z,64.27
2022-11-15T12:13:09.730Z,64.84
2022-11-15T12:14:09.736Z,65.37
2022-11-15T12:15:09.746Z,66.61
2022-11-15T12:16:10.685Z,67.22
2022-11-15T12:17:10.724Z,67.02
2022-11-15T12:18:09.704Z,67.43
2022-11-15T12:19:09.706Z,66.64
2022-11-15T12:20:09.691Z,68.06
2022-11-15T12:21:09.717Z,67.25
2022-11-15T12:22:09.660Z,68.57
2022-11-15T12:23:10.485Z,68.30
2022-11-15T12:24:09.658Z,68.90
2022-11-15T12:25:09.630Z,69.14
2022-11-15T12:26:09.686Z,68.19
2022-11-15T12:27:09.625Z,68.87
2022-11-15T12:28:09.601Z,68.26
2022-11-15T12:29:09.639Z,67.96
2022-11-15T12:30:09.646Z,69.45
2022-11-15T12:31:09.608Z,69.45
2022-11-15T12:32:09.692Z,68.20
2022-11-15T12:33:09.609Z,67.60
2022-11-15T12:34:09.592Z,67.09
2022-11-15T12:35:09.560Z,67.06
2022-11-15T12:36:09.593Z,66.69
2022-11-15T12:37:09.667Z,66.38
2022-11-15T12:38:09.588Z,66.89
2022-11-15T12:39:09.584Z,67.19
2022-11-15T12:40:09.568Z,67.29
2022-11-15T12:41:09.540Z,67.43
2022-11-15T12:42:09.548Z,67.32
2022-11-15T12:43:09.547Z,68.16
2022-11-15T12:44:09.521Z,69.38
2022-11-15T12:45:09.516Z,68.57
2022-11-15T12:46:09.559Z,68.26
2022-11-15T12:47:09.496Z,68.67
2022-11-15T12:48:09.549Z,69.07
2022-11-15T12:49:09.484Z,69.34
2022-11-15T12:50:10.461Z,68.54
2022-11-15T12:51:09.472Z,68.63
2022-11-15T12:52:09.499Z,67.43
2022-11-15T12:53:10.503Z,69.34
2022-11-15T12:54:09.498Z,68.94
2022-11-15T12:55:09.459Z,67.90